sensor_id;sensor_type;location;lat;lon;timestamp;temperature;humidity
5940;DHT22;2995;-31.998;115.906;2023-09-19T00:01:29;16.40;99.90
5940;DHT22;2995;-31.998;115.906;2023-09-19T00:04:00;16.40;99.90
5940;DHT22;2995;-31.998;115.906;2023-09-19T00:06:32;16.50;99.90
5940;DHT22;2995;-31.998;115.906;2023-09-19T00:09:04;16.60;99.90
5940;DHT22;2995;-31.998;115.906;2023-09-19T00:11:40;16.70;99.90
5940;DHT22;2995;-31.998;115.906;2023-09-19T00:14:12;16.80;99.90
5940;DHT22;2995;-31.998;115.906;2023-09-19T00:16:43;16.90;99.90
5940;DHT22;2995;-31.998;115.906;2023-09-19T00:19:15;16.90;99.90
5940;DHT22;2995;-31.998;115.906;2023-09-19T00:21:46;16.90;99.90
5940;DHT22;2995;-31.998;115.906;2023-09-19T00:24:17;17.00;99.90
5940;DHT22;2995;-31.998;115.906;2023-09-19T00:26:51;17.00;99.90
5940;DHT22;2995;-31.998;115.906;2023-09-19T00:29:23;17.00;99.90
5940;DHT22;2995;-31.998;115.906;2023-09-19T00:31:57;17.10;99.90
5940;DHT22;2995;-31.998;115.906;2023-09-19T00:34:28;17.20;99.90
5940;DHT22;2995;-31.998;115.906;2023-09-19T00:37:02;17.20;99.90
5940;DHT22;2995;-31.998;115.906;2023-09-19T00:39:33;17.30;99.90
5940;DHT22;2995;-31.998;115.906;2023-09-19T00:42:07;17.40;99.90
5940;DHT22;2995;-31.998;115.906;2023-09-19T00:44:38;17.40;99.90
5940;DHT22;2995;-31.998;115.906;2023-09-19T00:47:09;17.40;99.90
5940;DHT22;2995;-31.998;115.906;2023-09-19T00:49:43;17.30;99.90
5940;DHT22;2995;-31.998;115.906;2023-09-19T00:52:17;17.30;99.90
5940;DHT22;2995;-31.998;115.906;2023-09-19T00:54:49;17.30;99.90
5940;DHT22;2995;-31.998;115.906;2023-09-19T00:57:22;17.30;99.90
5940;DHT22;2995;-31.998;115.906;2023-09-19T00:59:56;17.40;99.90
5940;DHT22;2995;-31.998;115.906;2023-09-19T01:02:28;17.50;99.90
5940;DHT22;2995;-31.998;115.906;2023-09-19T01:04:59;17.50;99.90
5940;DHT22;2995;-31.998;115.906;2023-09-19T01:07:33;17.50;99.90
5940;DHT22;2995;-31.998;115.906;2023-09-19T01:10:05;17.40;99.90
5940;DHT22;2995;-31.998;115.906;2023-09-19T01:12:49;17.50;99.90
5940;DHT22;2995;-31.998;115.906;2023-09-19T01:15:32;17.50;99.90
5940;DHT22;2995;-31.998;115.906;2023-09-19T01:18:15;17.50;99.90
5940;DHT22;2995;-31.998;115.906;2023-09-19T01:20:54;17.50;99.90
5940;DHT22;2995;-31.998;115.906;2023-09-19T01:23:36;17.40;99.90
5940;DHT22;2995;-31.998;115.906;2023-09-19T01:26:21;17.40;99.90
5940;DHT22;2995;-31.998;115.906;2023-09-19T01:29:21;17.30;99.90
5940;DHT22;2995;-31.998;115.906;2023-09-19T01:32:01;17.40;99.90
5940;DHT22;2995;-31.998;115.906;2023-09-19T01:34:46;17.40;99.90
5940;DHT22;2995;-31.998;115.906;2023-09-19T01:37:22;17.40;99.90
5940;DHT22;2995;-31.998;115.906;2023-09-19T01:39:56;17.40;99.90
5940;DHT22;2995;-31.998;115.906;2023-09-19T01:42:40;17.40;99.90
5940;DHT22;2995;-31.998;115.906;2023-09-19T01:45:16;17.60;99.90
5940;DHT22;2995;-31.998;115.906;2023-09-19T01:47:53;17.60;99.90
5940;DHT22;2995;-31.998;115.906;2023-09-19T01:50:32;17.60;99.90
5940;DHT22;2995;-31.998;115.906;2023-09-19T01:53:13;17.70;99.90
5940;DHT22;2995;-31.998;115.906;2023-09-19T01:55:48;17.70;99.90
5940;DHT22;2995;-31.998;115.906;2023-09-19T01:58:27;17.90;99.90
5940;DHT22;2995;-31.998;115.906;2023-09-19T02:01:01;18.10;99.90
5940;DHT22;2995;-31.998;115.906;2023-09-19T02:03:37;17.90;99.90
5940;DHT22;2995;-31.998;115.906;2023-09-19T02:06:09;17.80;99.90
5940;DHT22;2995;-31.998;115.906;2023-09-19T02:08:46;17.90;99.90
5940;DHT22;2995;-31.998;115.906;2023-09-19T02:11:17;17.80;99.90
5940;DHT22;2995;-31.998;115.906;2023-09-19T02:13:53;17.80;99.90
5940;DHT22;2995;-31.998;115.906;2023-09-19T02:16:25;17.90;99.90
5940;DHT22;2995;-31.998;115.906;2023-09-19T02:18:58;18.10;99.90
5940;DHT22;2995;-31.998;115.906;2023-09-19T02:21:33;18.10;99.90
5940;DHT22;2995;-31.998;115.906;2023-09-19T02:24:04;18.10;99.90
5940;DHT22;2995;-31.998;115.906;2023-09-19T02:26:38;18.40;99.90
5940;DHT22;2995;-31.998;115.906;2023-09-19T02:29:09;18.60;99.90
5940;DHT22;2995;-31.998;115.906;2023-09-19T02:31:42;19.10;99.90
5940;DHT22;2995;-31.998;115.906;2023-09-19T02:34:16;19.30;99.90
5940;DHT22;2995;-31.998;115.906;2023-09-19T02:36:48;19.20;99.90
5940;DHT22;2995;-31.998;115.906;2023-09-19T02:39:21;19.30;99.90
5940;DHT22;2995;-31.998;115.906;2023-09-19T02:41:53;19.20;99.90
5940;DHT22;2995;-31.998;115.906;2023-09-19T02:44:25;19.20;99.90
5940;DHT22;2995;-31.998;115.906;2023-09-19T02:46:56;19.20;99.90
5940;DHT22;2995;-31.998;115.906;2023-09-19T02:49:29;19.20;99.90
5940;DHT22;2995;-31.998;115.906;2023-09-19T02:52:01;19.30;99.90
5940;DHT22;2995;-31.998;115.906;2023-09-19T02:54:32;19.30;99.90
5940;DHT22;2995;-31.998;115.906;2023-09-19T02:57:05;19.60;99.90
5940;DHT22;2995;-31.998;115.906;2023-09-19T02:59:37;19.80;99.90
5940;DHT22;2995;-31.998;115.906;2023-09-19T03:02:10;19.60;99.90
5940;DHT22;2995;-31.998;115.906;2023-09-19T08:44:45;18.80;99.90
5940;DHT22;2995;-31.998;115.906;2023-09-19T08:47:17;18.70;99.90
5940;DHT22;2995;-31.998;115.906;2023-09-19T08:49:57;18.70;99.90
5940;DHT22;2995;-31.998;115.906;2023-09-19T08:52:41;18.80;99.90
5940;DHT22;2995;-31.998;115.906;2023-09-19T08:55:13;18.80;99.90
5940;DHT22;2995;-31.998;115.906;2023-09-19T08:57:51;18.70;99.90
5940;DHT22;2995;-31.998;115.906;2023-09-19T09:00:25;18.70;99.90
5940;DHT22;2995;-31.998;115.906;2023-09-19T09:02:58;18.70;99.90
5940;DHT22;2995;-31.998;115.906;2023-09-19T09:05:30;18.60;99.90
5940;DHT22;2995;-31.998;115.906;2023-09-19T09:08:03;18.70;99.90
5940;DHT22;2995;-31.998;115.906;2023-09-19T09:10:36;18.50;99.90
5940;DHT22;2995;-31.998;115.906;2023-09-19T09:13:08;18.20;99.90
5940;DHT22;2995;-31.998;115.906;2023-09-19T09:15:44;18.20;99.90
5940;DHT22;2995;-31.998;115.906;2023-09-19T09:18:16;18.00;99.90
5940;DHT22;2995;-31.998;115.906;2023-09-19T09:20:48;18.00;99.90
5940;DHT22;2995;-31.998;115.906;2023-09-19T09:23:20;17.90;99.90
5940;DHT22;2995;-31.998;115.906;2023-09-19T09:25:53;17.90;99.90
5940;DHT22;2995;-31.998;115.906;2023-09-19T09:28:25;17.90;99.90
5940;DHT22;2995;-31.998;115.906;2023-09-19T09:30:59;17.90;99.90
5940;DHT22;2995;-31.998;115.906;2023-09-19T09:33:30;17.80;99.90
5940;DHT22;2995;-31.998;115.906;2023-09-19T09:36:03;17.80;99.90
5940;DHT22;2995;-31.998;115.906;2023-09-19T09:38:45;17.80;99.90
5940;DHT22;2995;-31.998;115.906;2023-09-19T09:41:17;17.70;99.90
5940;DHT22;2995;-31.998;115.906;2023-09-19T09:43:55;17.60;99.90
5940;DHT22;2995;-31.998;115.906;2023-09-19T09:46:29;17.60;99.90
5940;DHT22;2995;-31.998;115.906;2023-09-19T09:49:23;17.40;99.90
5940;DHT22;2995;-31.998;115.906;2023-09-19T09:52:02;17.30;99.90
5940;DHT22;2995;-31.998;115.906;2023-09-19T09:54:37;17.30;99.90
5940;DHT22;2995;-31.998;115.906;2023-09-19T09:57:09;17.30;99.90
5940;DHT22;2995;-31.998;115.906;2023-09-19T09:59:52;17.20;99.90
5940;DHT22;2995;-31.998;115.906;2023-09-19T10:02:29;17.20;99.90
5940;DHT22;2995;-31.998;115.906;2023-09-19T10:05:13;17.30;99.90
5940;DHT22;2995;-31.998;115.906;2023-09-19T10:07:50;17.30;99.90
5940;DHT22;2995;-31.998;115.906;2023-09-19T10:10:34;17.30;99.90
5940;DHT22;2995;-31.998;115.906;2023-09-19T10:13:21;17.30;99.90
5940;DHT22;2995;-31.998;115.906;2023-09-19T10:15:56;17.20;99.90
5940;DHT22;2995;-31.998;115.906;2023-09-19T10:18:37;17.00;99.90
5940;DHT22;2995;-31.998;115.906;2023-09-19T10:21:10;16.90;99.90
5940;DHT22;2995;-31.998;115.906;2023-09-19T10:23:42;16.80;99.90
5940;DHT22;2995;-31.998;115.906;2023-09-19T10:26:17;16.90;99.90
5940;DHT22;2995;-31.998;115.906;2023-09-19T10:28:50;17.00;99.90
5940;DHT22;2995;-31.998;115.906;2023-09-19T10:31:25;16.90;99.90
5940;DHT22;2995;-31.998;115.906;2023-09-19T10:33:59;17.00;99.90
5940;DHT22;2995;-31.998;115.906;2023-09-19T10:36:34;16.90;99.90
5940;DHT22;2995;-31.998;115.906;2023-09-19T10:39:07;16.90;99.90
5940;DHT22;2995;-31.998;115.906;2023-09-19T10:41:40;16.90;99.90
5940;DHT22;2995;-31.998;115.906;2023-09-19T10:44:13;16.90;99.90
5940;DHT22;2995;-31.998;115.906;2023-09-19T10:46:46;16.90;99.90
5940;DHT22;2995;-31.998;115.906;2023-09-19T10:49:20;17.00;99.90
5940;DHT22;2995;-31.998;115.906;2023-09-19T10:51:55;16.90;99.90
5940;DHT22;2995;-31.998;115.906;2023-09-19T10:54:29;16.90;99.90
5940;DHT22;2995;-31.998;115.906;2023-09-19T10:57:02;16.90;99.90
5940;DHT22;2995;-31.998;115.906;2023-09-19T10:59:36;17.00;99.90
5940;DHT22;2995;-31.998;115.906;2023-09-19T11:02:18;17.10;99.90
5940;DHT22;2995;-31.998;115.906;2023-09-19T11:04:53;17.20;99.90
5940;DHT22;2995;-31.998;115.906;2023-09-19T11:07:25;17.20;99.90
5940;DHT22;2995;-31.998;115.906;2023-09-19T11:09:58;17.10;99.90
5940;DHT22;2995;-31.998;115.906;2023-09-19T11:12:48;17.00;99.90
5940;DHT22;2995;-31.998;115.906;2023-09-19T11:18:54;16.70;99.90
5940;DHT22;2995;-31.998;115.906;2023-09-19T11:24:38;16.60;99.90
5940;DHT22;2995;-31.998;115.906;2023-09-19T11:27:16;16.50;99.90
5940;DHT22;2995;-31.998;115.906;2023-09-19T11:29:48;16.50;99.90
5940;DHT22;2995;-31.998;115.906;2023-09-19T11:33:16;16.40;99.90
5940;DHT22;2995;-31.998;115.906;2023-09-19T11:36:02;16.60;99.90
5940;DHT22;2995;-31.998;115.906;2023-09-19T11:39:01;16.60;99.90
5940;DHT22;2995;-31.998;115.906;2023-09-19T11:41:42;16.70;99.90
5940;DHT22;2995;-31.998;115.906;2023-09-19T11:44:34;16.70;99.90
5940;DHT22;2995;-31.998;115.906;2023-09-19T11:47:07;16.70;99.90
5940;DHT22;2995;-31.998;115.906;2023-09-19T11:49:41;16.50;99.90
5940;DHT22;2995;-31.998;115.906;2023-09-19T11:52:16;16.50;99.90
5940;DHT22;2995;-31.998;115.906;2023-09-19T11:54:57;16.70;99.90
5940;DHT22;2995;-31.998;115.906;2023-09-19T11:57:31;16.60;99.90
5940;DHT22;2995;-31.998;115.906;2023-09-19T12:00:04;16.50;99.90
5940;DHT22;2995;-31.998;115.906;2023-09-19T12:02:41;16.60;99.90
5940;DHT22;2995;-31.998;115.906;2023-09-19T12:05:14;16.90;99.90
5940;DHT22;2995;-31.998;115.906;2023-09-19T12:07:49;16.80;99.90
5940;DHT22;2995;-31.998;115.906;2023-09-19T12:10:21;16.80;99.90
5940;DHT22;2995;-31.998;115.906;2023-09-19T12:12:54;16.70;99.90
5940;DHT22;2995;-31.998;115.906;2023-09-19T12:15:27;16.60;99.90
5940;DHT22;2995;-31.998;115.906;2023-09-19T12:18:03;16.50;99.90
5940;DHT22;2995;-31.998;115.906;2023-09-19T12:20:45;16.60;99.90
5940;DHT22;2995;-31.998;115.906;2023-09-19T12:23:18;16.70;99.90
5940;DHT22;2995;-31.998;115.906;2023-09-19T12:25:50;16.60;99.90
5940;DHT22;2995;-31.998;115.906;2023-09-19T12:28:27;16.60;99.90
5940;DHT22;2995;-31.998;115.906;2023-09-19T12:31:07;16.70;99.90
5940;DHT22;2995;-31.998;115.906;2023-09-19T12:33:39;16.70;99.90
5940;DHT22;2995;-31.998;115.906;2023-09-19T12:36:21;16.60;99.90
5940;DHT22;2995;-31.998;115.906;2023-09-19T12:38:57;16.60;99.90
5940;DHT22;2995;-31.998;115.906;2023-09-19T12:41:29;16.50;99.90
5940;DHT22;2995;-31.998;115.906;2023-09-19T12:44:02;16.50;99.90
5940;DHT22;2995;-31.998;115.906;2023-09-19T12:46:38;16.50;99.90
5940;DHT22;2995;-31.998;115.906;2023-09-19T12:49:19;16.50;99.90
5940;DHT22;2995;-31.998;115.906;2023-09-19T12:51:56;16.40;99.90
5940;DHT22;2995;-31.998;115.906;2023-09-19T12:54:39;16.40;99.90
5940;DHT22;2995;-31.998;115.906;2023-09-19T12:57:24;16.40;99.90
5940;DHT22;2995;-31.998;115.906;2023-09-19T12:59:57;16.40;99.90
5940;DHT22;2995;-31.998;115.906;2023-09-19T13:02:28;16.50;99.90
5940;DHT22;2995;-31.998;115.906;2023-09-19T13:05:00;16.40;99.90
5940;DHT22;2995;-31.998;115.906;2023-09-19T13:07:47;16.50;99.90
5940;DHT22;2995;-31.998;115.906;2023-09-19T13:10:19;16.50;99.90
5940;DHT22;2995;-31.998;115.906;2023-09-19T13:12:52;16.50;99.90
5940;DHT22;2995;-31.998;115.906;2023-09-19T13:15:26;16.40;99.90
5940;DHT22;2995;-31.998;115.906;2023-09-19T13:17:57;16.50;99.90
5940;DHT22;2995;-31.998;115.906;2023-09-19T13:20:30;16.30;99.90
5940;DHT22;2995;-31.998;115.906;2023-09-19T13:23:27;16.30;99.90
5940;DHT22;2995;-31.998;115.906;2023-09-19T13:25:59;16.30;99.90
5940;DHT22;2995;-31.998;115.906;2023-09-19T13:28:30;16.30;99.90
5940;DHT22;2995;-31.998;115.906;2023-09-19T13:31:03;16.30;99.90
5940;DHT22;2995;-31.998;115.906;2023-09-19T13:33:35;16.30;99.90
5940;DHT22;2995;-31.998;115.906;2023-09-19T13:36:13;16.30;99.90
5940;DHT22;2995;-31.998;115.906;2023-09-19T13:38:45;16.20;99.90
5940;DHT22;2995;-31.998;115.906;2023-09-19T13:41:17;16.30;99.90
5940;DHT22;2995;-31.998;115.906;2023-09-19T13:43:48;16.30;99.90
5940;DHT22;2995;-31.998;115.906;2023-09-19T13:46:22;16.40;99.90
5940;DHT22;2995;-31.998;115.906;2023-09-19T13:48:55;16.30;99.90
5940;DHT22;2995;-31.998;115.906;2023-09-19T13:51:27;16.40;99.90
5940;DHT22;2995;-31.998;115.906;2023-09-19T13:53:59;16.40;99.90
5940;DHT22;2995;-31.998;115.906;2023-09-19T13:56:31;16.40;99.90
5940;DHT22;2995;-31.998;115.906;2023-09-19T13:59:02;16.30;99.90
5940;DHT22;2995;-31.998;115.906;2023-09-19T14:01:35;16.30;99.90
5940;DHT22;2995;-31.998;115.906;2023-09-19T14:04:07;16.30;99.90
5940;DHT22;2995;-31.998;115.906;2023-09-19T14:06:42;16.20;99.90
5940;DHT22;2995;-31.998;115.906;2023-09-19T14:09:14;16.30;99.90
5940;DHT22;2995;-31.998;115.906;2023-09-19T14:11:47;16.30;99.90
5940;DHT22;2995;-31.998;115.906;2023-09-19T14:14:20;16.30;99.90
5940;DHT22;2995;-31.998;115.906;2023-09-19T14:16:53;16.20;99.90
5940;DHT22;2995;-31.998;115.906;2023-09-19T14:19:25;16.30;99.90
5940;DHT22;2995;-31.998;115.906;2023-09-19T14:21:56;16.20;99.90
5940;DHT22;2995;-31.998;115.906;2023-09-19T14:24:28;16.30;99.90
5940;DHT22;2995;-31.998;115.906;2023-09-19T14:26:59;16.40;99.90
5940;DHT22;2995;-31.998;115.906;2023-09-19T14:29:32;16.40;99.90
5940;DHT22;2995;-31.998;115.906;2023-09-19T14:32:05;16.30;99.90
5940;DHT22;2995;-31.998;115.906;2023-09-19T14:34:37;16.40;99.90
5940;DHT22;2995;-31.998;115.906;2023-09-19T14:37:10;16.30;99.90
5940;DHT22;2995;-31.998;115.906;2023-09-19T14:39:42;16.30;99.90
5940;DHT22;2995;-31.998;115.906;2023-09-19T14:42:13;16.40;99.90
5940;DHT22;2995;-31.998;115.906;2023-09-19T14:44:45;16.30;99.90
5940;DHT22;2995;-31.998;115.906;2023-09-19T14:47:20;16.20;99.90
5940;DHT22;2995;-31.998;115.906;2023-09-19T14:49:51;16.10;99.90
5940;DHT22;2995;-31.998;115.906;2023-09-19T14:52:23;16.20;99.90
5940;DHT22;2995;-31.998;115.906;2023-09-19T14:54:56;16.30;99.90
5940;DHT22;2995;-31.998;115.906;2023-09-19T14:57:27;16.30;99.90
5940;DHT22;2995;-31.998;115.906;2023-09-19T14:59:58;16.10;99.90
5940;DHT22;2995;-31.998;115.906;2023-09-19T15:02:35;16.10;99.90
5940;DHT22;2995;-31.998;115.906;2023-09-19T15:05:07;16.10;99.90
5940;DHT22;2995;-31.998;115.906;2023-09-19T15:07:39;16.10;99.90
5940;DHT22;2995;-31.998;115.906;2023-09-19T15:10:10;16.10;99.90
5940;DHT22;2995;-31.998;115.906;2023-09-19T15:12:42;16.20;99.90
5940;DHT22;2995;-31.998;115.906;2023-09-19T15:15:13;16.30;99.90
5940;DHT22;2995;-31.998;115.906;2023-09-19T15:17:46;16.10;99.90
5940;DHT22;2995;-31.998;115.906;2023-09-19T15:20:18;16.00;99.90
5940;DHT22;2995;-31.998;115.906;2023-09-19T15:22:51;16.10;99.90
5940;DHT22;2995;-31.998;115.906;2023-09-19T15:25:22;16.00;99.90
5940;DHT22;2995;-31.998;115.906;2023-09-19T15:27:53;16.00;99.90
5940;DHT22;2995;-31.998;115.906;2023-09-19T15:30:26;16.00;99.90
5940;DHT22;2995;-31.998;115.906;2023-09-19T15:32:59;15.90;99.90
5940;DHT22;2995;-31.998;115.906;2023-09-19T15:35:30;15.80;99.90
5940;DHT22;2995;-31.998;115.906;2023-09-19T15:38:01;15.90;99.90
5940;DHT22;2995;-31.998;115.906;2023-09-19T15:40:32;15.80;99.90
5940;DHT22;2995;-31.998;115.906;2023-09-19T15:43:04;15.90;99.90
5940;DHT22;2995;-31.998;115.906;2023-09-19T15:45:35;16.00;99.90
5940;DHT22;2995;-31.998;115.906;2023-09-19T15:48:08;16.00;99.90
5940;DHT22;2995;-31.998;115.906;2023-09-19T15:50:39;16.10;99.90
5940;DHT22;2995;-31.998;115.906;2023-09-19T15:53:12;16.10;99.90
5940;DHT22;2995;-31.998;115.906;2023-09-19T15:55:44;16.10;99.90
5940;DHT22;2995;-31.998;115.906;2023-09-19T15:58:16;16.00;99.90
5940;DHT22;2995;-31.998;115.906;2023-09-19T16:00:47;16.10;99.90
5940;DHT22;2995;-31.998;115.906;2023-09-19T16:03:21;16.10;99.90
5940;DHT22;2995;-31.998;115.906;2023-09-19T16:05:53;16.10;99.90
5940;DHT22;2995;-31.998;115.906;2023-09-19T16:08:24;16.00;99.90
5940;DHT22;2995;-31.998;115.906;2023-09-19T16:10:56;16.00;99.90
5940;DHT22;2995;-31.998;115.906;2023-09-19T16:13:27;16.10;99.90
5940;DHT22;2995;-31.998;115.906;2023-09-19T16:15:59;16.00;99.90
5940;DHT22;2995;-31.998;115.906;2023-09-19T16:18:33;16.10;99.90
5940;DHT22;2995;-31.998;115.906;2023-09-19T16:21:04;16.10;99.90
5940;DHT22;2995;-31.998;115.906;2023-09-19T16:23:36;16.10;99.90
5940;DHT22;2995;-31.998;115.906;2023-09-19T16:26:08;16.10;99.90
5940;DHT22;2995;-31.998;115.906;2023-09-19T16:28:41;16.00;99.90
5940;DHT22;2995;-31.998;115.906;2023-09-19T16:31:12;16.00;99.90
5940;DHT22;2995;-31.998;115.906;2023-09-19T16:33:47;15.90;99.90
5940;DHT22;2995;-31.998;115.906;2023-09-19T16:36:19;15.90;99.90
5940;DHT22;2995;-31.998;115.906;2023-09-19T16:38:51;16.00;99.90
5940;DHT22;2995;-31.998;115.906;2023-09-19T16:41:22;16.00;99.90
5940;DHT22;2995;-31.998;115.906;2023-09-19T16:43:53;15.90;99.90
5940;DHT22;2995;-31.998;115.906;2023-09-19T16:46:26;16.00;99.90
5940;DHT22;2995;-31.998;115.906;2023-09-19T16:48:59;16.00;99.90
5940;DHT22;2995;-31.998;115.906;2023-09-19T16:51:31;16.00;99.90
5940;DHT22;2995;-31.998;115.906;2023-09-19T16:54:03;16.00;99.90
5940;DHT22;2995;-31.998;115.906;2023-09-19T16:56:34;15.90;99.90
5940;DHT22;2995;-31.998;115.906;2023-09-19T16:59:07;15.90;99.90
5940;DHT22;2995;-31.998;115.906;2023-09-19T17:01:38;15.80;99.90
5940;DHT22;2995;-31.998;115.906;2023-09-19T17:04:11;15.90;99.90
5940;DHT22;2995;-31.998;115.906;2023-09-19T17:06:42;15.90;99.90
5940;DHT22;2995;-31.998;115.906;2023-09-19T17:09:14;15.80;99.90
5940;DHT22;2995;-31.998;115.906;2023-09-19T17:11:46;15.80;99.90
5940;DHT22;2995;-31.998;115.906;2023-09-19T17:14:18;15.80;99.90
5940;DHT22;2995;-31.998;115.906;2023-09-19T17:16:49;15.90;99.90
5940;DHT22;2995;-31.998;115.906;2023-09-19T17:19:22;15.80;99.90
5940;DHT22;2995;-31.998;115.906;2023-09-19T17:21:54;15.90;99.90
5940;DHT22;2995;-31.998;115.906;2023-09-19T17:24:25;15.90;99.90
5940;DHT22;2995;-31.998;115.906;2023-09-19T17:26:57;15.80;99.90
5940;DHT22;2995;-31.998;115.906;2023-09-19T17:29:29;15.90;99.90
5940;DHT22;2995;-31.998;115.906;2023-09-19T17:32:01;15.90;99.90
5940;DHT22;2995;-31.998;115.906;2023-09-19T17:34:37;15.90;99.90
5940;DHT22;2995;-31.998;115.906;2023-09-19T17:37:08;15.90;99.90
5940;DHT22;2995;-31.998;115.906;2023-09-19T17:39:39;15.80;99.90
5940;DHT22;2995;-31.998;115.906;2023-09-19T17:42:11;15.80;99.90
5940;DHT22;2995;-31.998;115.906;2023-09-19T17:44:42;15.80;99.90
5940;DHT22;2995;-31.998;115.906;2023-09-19T17:47:13;15.90;99.90
5940;DHT22;2995;-31.998;115.906;2023-09-19T17:49:48;15.80;99.90
5940;DHT22;2995;-31.998;115.906;2023-09-19T17:52:20;15.90;99.90
5940;DHT22;2995;-31.998;115.906;2023-09-19T17:54:51;15.90;99.90
5940;DHT22;2995;-31.998;115.906;2023-09-19T17:57:23;15.80;99.90
5940;DHT22;2995;-31.998;115.906;2023-09-19T17:59:54;15.80;99.90
5940;DHT22;2995;-31.998;115.906;2023-09-19T18:02:25;15.60;99.90
5940;DHT22;2995;-31.998;115.906;2023-09-19T18:04:58;15.80;99.90
5940;DHT22;2995;-31.998;115.906;2023-09-19T18:07:29;15.80;99.90
5940;DHT22;2995;-31.998;115.906;2023-09-19T18:10:01;15.60;99.90
5940;DHT22;2995;-31.998;115.906;2023-09-19T18:12:35;15.70;99.90
5940;DHT22;2995;-31.998;115.906;2023-09-19T18:15:07;15.60;99.90
5940;DHT22;2995;-31.998;115.906;2023-09-19T18:17:40;15.70;99.90
5940;DHT22;2995;-31.998;115.906;2023-09-19T18:20:14;15.80;99.90
5940;DHT22;2995;-31.998;115.906;2023-09-19T18:22:47;15.80;99.90
5940;DHT22;2995;-31.998;115.906;2023-09-19T18:25:18;15.80;99.90
5940;DHT22;2995;-31.998;115.906;2023-09-19T18:27:50;15.60;99.90
5940;DHT22;2995;-31.998;115.906;2023-09-19T18:30:22;15.70;99.90
5940;DHT22;2995;-31.998;115.906;2023-09-19T18:32:53;15.60;99.90
5940;DHT22;2995;-31.998;115.906;2023-09-19T18:35:27;15.60;99.90
5940;DHT22;2995;-31.998;115.906;2023-09-19T18:37:59;15.60;99.90
5940;DHT22;2995;-31.998;115.906;2023-09-19T18:40:30;15.60;99.90
5940;DHT22;2995;-31.998;115.906;2023-09-19T18:43:01;15.60;99.90
5940;DHT22;2995;-31.998;115.906;2023-09-19T18:45:33;15.60;99.90
5940;DHT22;2995;-31.998;115.906;2023-09-19T18:48:06;15.70;99.90
5940;DHT22;2995;-31.998;115.906;2023-09-19T18:50:39;15.80;99.90
5940;DHT22;2995;-31.998;115.906;2023-09-19T18:53:11;15.70;99.90
5940;DHT22;2995;-31.998;115.906;2023-09-19T18:55:42;15.80;99.90
5940;DHT22;2995;-31.998;115.906;2023-09-19T18:58:13;15.80;99.90
5940;DHT22;2995;-31.998;115.906;2023-09-19T19:00:44;15.70;99.90
5940;DHT22;2995;-31.998;115.906;2023-09-19T19:03:18;15.70;99.90
5940;DHT22;2995;-31.998;115.906;2023-09-19T19:05:52;15.70;99.90
5940;DHT22;2995;-31.998;115.906;2023-09-19T19:08:23;15.70;99.90
5940;DHT22;2995;-31.998;115.906;2023-09-19T19:10:54;15.70;99.90
5940;DHT22;2995;-31.998;115.906;2023-09-19T19:13:25;15.60;99.90
5940;DHT22;2995;-31.998;115.906;2023-09-19T19:15:58;15.60;99.90
5940;DHT22;2995;-31.998;115.906;2023-09-19T19:18:30;15.50;99.90
5940;DHT22;2995;-31.998;115.906;2023-09-19T19:21:03;15.50;99.90
5940;DHT22;2995;-31.998;115.906;2023-09-19T19:23:36;15.70;99.90
5940;DHT22;2995;-31.998;115.906;2023-09-19T19:26:09;15.50;99.90
5940;DHT22;2995;-31.998;115.906;2023-09-19T19:28:42;15.50;99.90
5940;DHT22;2995;-31.998;115.906;2023-09-19T19:31:13;15.60;99.90
5940;DHT22;2995;-31.998;115.906;2023-09-19T19:33:45;15.60;99.90
5940;DHT22;2995;-31.998;115.906;2023-09-19T19:36:18;15.60;99.90
5940;DHT22;2995;-31.998;115.906;2023-09-19T19:38:50;15.50;99.90
5940;DHT22;2995;-31.998;115.906;2023-09-19T19:41:23;15.50;99.90
5940;DHT22;2995;-31.998;115.906;2023-09-19T19:43:54;15.50;99.90
5940;DHT22;2995;-31.998;115.906;2023-09-19T19:46:26;15.50;99.90
5940;DHT22;2995;-31.998;115.906;2023-09-19T19:48:57;15.50;99.90
5940;DHT22;2995;-31.998;115.906;2023-09-19T19:51:30;15.30;99.90
5940;DHT22;2995;-31.998;115.906;2023-09-19T19:54:03;15.30;99.90
5940;DHT22;2995;-31.998;115.906;2023-09-19T19:56:36;15.10;99.90
5940;DHT22;2995;-31.998;115.906;2023-09-19T19:59:09;15.20;99.90
5940;DHT22;2995;-31.998;115.906;2023-09-19T20:01:41;15.20;99.90
5940;DHT22;2995;-31.998;115.906;2023-09-19T20:04:12;15.20;99.90
5940;DHT22;2995;-31.998;115.906;2023-09-19T20:06:45;15.20;99.90
5940;DHT22;2995;-31.998;115.906;2023-09-19T20:09:17;15.20;99.90
5940;DHT22;2995;-31.998;115.906;2023-09-19T20:11:49;15.30;99.90
5940;DHT22;2995;-31.998;115.906;2023-09-19T20:14:20;15.30;99.90
5940;DHT22;2995;-31.998;115.906;2023-09-19T20:16:52;15.20;99.90
5940;DHT22;2995;-31.998;115.906;2023-09-19T20:19:24;15.10;99.90
5940;DHT22;2995;-31.998;115.906;2023-09-19T20:22:02;15.10;99.90
5940;DHT22;2995;-31.998;115.906;2023-09-19T20:24:37;15.10;99.90
5940;DHT22;2995;-31.998;115.906;2023-09-19T20:27:08;15.10;99.90
5940;DHT22;2995;-31.998;115.906;2023-09-19T20:29:41;15.10;99.90
5940;DHT22;2995;-31.998;115.906;2023-09-19T20:32:13;15.10;99.90
5940;DHT22;2995;-31.998;115.906;2023-09-19T20:34:45;15.00;99.90
5940;DHT22;2995;-31.998;115.906;2023-09-19T20:37:18;14.90;99.90
5940;DHT22;2995;-31.998;115.906;2023-09-19T20:39:50;14.90;99.90
5940;DHT22;2995;-31.998;115.906;2023-09-19T20:42:22;14.90;99.90
5940;DHT22;2995;-31.998;115.906;2023-09-19T20:44:53;14.90;99.90
5940;DHT22;2995;-31.998;115.906;2023-09-19T20:47:25;14.80;99.90
5940;DHT22;2995;-31.998;115.906;2023-09-19T20:49:56;14.80;99.90
5940;DHT22;2995;-31.998;115.906;2023-09-19T20:52:29;14.80;99.90
5940;DHT22;2995;-31.998;115.906;2023-09-19T20:55:00;14.80;99.90
5940;DHT22;2995;-31.998;115.906;2023-09-19T20:57:32;14.80;99.90
5940;DHT22;2995;-31.998;115.906;2023-09-19T21:00:03;15.00;99.90
5940;DHT22;2995;-31.998;115.906;2023-09-19T21:02:36;14.90;99.90
5940;DHT22;2995;-31.998;115.906;2023-09-19T21:05:08;14.80;99.90
5940;DHT22;2995;-31.998;115.906;2023-09-19T21:07:42;14.90;99.90
5940;DHT22;2995;-31.998;115.906;2023-09-19T21:10:14;14.90;99.90
5940;DHT22;2995;-31.998;115.906;2023-09-19T21:12:45;14.90;99.90
5940;DHT22;2995;-31.998;115.906;2023-09-19T21:15:16;15.00;99.90
5940;DHT22;2995;-31.998;115.906;2023-09-19T21:17:47;14.90;99.90
5940;DHT22;2995;-31.998;115.906;2023-09-19T21:20:19;15.00;99.90
5940;DHT22;2995;-31.998;115.906;2023-09-19T21:22:56;15.00;99.90
5940;DHT22;2995;-31.998;115.906;2023-09-19T21:25:27;15.00;99.90
5940;DHT22;2995;-31.998;115.906;2023-09-19T21:27:59;14.90;99.90
5940;DHT22;2995;-31.998;115.906;2023-09-19T21:30:32;14.90;99.90
5940;DHT22;2995;-31.998;115.906;2023-09-19T21:33:03;14.90;99.90
5940;DHT22;2995;-31.998;115.906;2023-09-19T21:35:37;14.80;99.90
5940;DHT22;2995;-31.998;115.906;2023-09-19T21:38:16;14.90;99.90
5940;DHT22;2995;-31.998;115.906;2023-09-19T21:40:47;14.80;99.90
5940;DHT22;2995;-31.998;115.906;2023-09-19T21:43:18;14.80;99.90